TPC5711 KSAT-KMEM
Flight info
| Callsign | TPC5711 |
|---|---|
| Flight time | 1h 27m |
| Altitude | 39000 |
| Route | SNIDR2 BLUMS DCT IAH J29 ELD HOBRK4 |
| Aircraft | B737/M-SDE2E3FGHIRWXY/LB1 |
Departure
| Time | 2026-04-25 21:31 |
|---|---|
| Airport | San Antonio International Airport (KSAT) |
Arrival
| Time | 2026-04-25 22:58 |
|---|---|
| Airport | Memphis International Airport (KMEM) |
| Time | Latitude | Longitude | Altitude | Speed | Heading |
|---|---|---|---|---|---|
| 2026-04-25 20:59 | 29.52590 | -98.47107 | 790 ft | 0 kts | 325° |
| 2026-04-25 21:22 | 29.52583 | -98.47101 | 790 ft | 4 kts | 322° |
| 2026-04-25 21:22 | 29.52564 | -98.47080 | 788 ft | 4 kts | 298° |
| 2026-04-25 21:22 | 29.52558 | -98.47054 | 788 ft | 4 kts | 246° |
| 2026-04-25 21:22 | 29.52566 | -98.47042 | 788 ft | 1 kts | 222° |
| 2026-04-25 21:23 | 29.52567 | -98.47041 | 788 ft | 1 kts | 222° |
| 2026-04-25 21:24 | 29.52566 | -98.47041 | 789 ft | 0 kts | 222° |
| 2026-04-25 21:27 | 29.52566 | -98.47042 | 788 ft | 1 kts | 222° |
| 2026-04-25 21:27 | 29.52544 | -98.47064 | 783 ft | 5 kts | 222° |
| 2026-04-25 21:27 | 29.52519 | -98.47088 | 783 ft | 4 kts | 217° |
| 2026-04-25 21:27 | 29.52494 | -98.47103 | 783 ft | 6 kts | 198° |
| 2026-04-25 21:28 | 29.52434 | -98.47088 | 781 ft | 11 kts | 152° |
| 2026-04-25 21:28 | 29.52401 | -98.47061 | 781 ft | 1 kts | 137° |
| 2026-04-25 21:29 | 29.52394 | -98.47053 | 781 ft | 9 kts | 137° |
| 2026-04-25 21:29 | 29.52348 | -98.46991 | 780 ft | 9 kts | 110° |
| 2026-04-25 21:29 | 29.52361 | -98.46958 | 781 ft | 0 kts | 33° |
| 2026-04-25 21:30 | 29.52373 | -98.46949 | 780 ft | 16 kts | 36° |
| 2026-04-25 21:30 | 29.52651 | -98.46673 | 785 ft | 88 kts | 40° |
| 2026-04-25 21:30 | 29.53041 | -98.46285 | 783 ft | 130 kts | 41° |
| 2026-04-25 21:31 | 29.54173 | -98.45224 | 987 ft | 179 kts | 43° |
| 2026-04-25 21:31 | 29.55234 | -98.44249 | 1300 ft | 209 kts | 44° |
| 2026-04-25 21:31 | 29.56460 | -98.43111 | 1600 ft | 235 kts | 40° |
| 2026-04-25 21:31 | 29.57781 | -98.41919 | 2010 ft | 248 kts | 40° |
| 2026-04-25 21:32 | 29.59153 | -98.40694 | 2668 ft | 257 kts | 40° |
| 2026-04-25 21:32 | 29.60526 | -98.39432 | 4045 ft | 246 kts | 41° |
| 2026-04-25 21:32 | 29.61860 | -98.38195 | 4899 ft | 252 kts | 41° |
| 2026-04-25 21:32 | 29.63209 | -98.36935 | 4884 ft | 248 kts | 41° |
| 2026-04-25 21:33 | 29.64555 | -98.35695 | 4936 ft | 250 kts | 40° |
| 2026-04-25 21:33 | 29.65929 | -98.34423 | 4957 ft | 256 kts | 40° |
| 2026-04-25 21:33 | 29.67323 | -98.33139 | 4939 ft | 258 kts | 40° |
| 2026-04-25 21:33 | 29.68722 | -98.31857 | 4958 ft | 257 kts | 40° |
| 2026-04-25 21:34 | 29.69968 | -98.30411 | 4936 ft | 255 kts | 66° |
| 2026-04-25 21:34 | 29.70276 | -98.28423 | 5076 ft | 266 kts | 103° |
| 2026-04-25 21:34 | 29.69744 | -98.26336 | 5939 ft | 276 kts | 109° |
| 2026-04-25 21:34 | 29.69206 | -98.24192 | 7011 ft | 282 kts | 108° |
| 2026-04-25 21:35 | 29.68708 | -98.21969 | 7952 ft | 291 kts | 105° |
| 2026-04-25 21:35 | 29.68241 | -98.19677 | 8955 ft | 300 kts | 104° |
| 2026-04-25 21:35 | 29.67791 | -98.17307 | 9926 ft | 305 kts | 103° |
| 2026-04-25 21:35 | 29.67354 | -98.14892 | 10877 ft | 311 kts | 102° |
| 2026-04-25 21:36 | 29.66919 | -98.12432 | 11833 ft | 317 kts | 102° |
| 2026-04-25 21:36 | 29.66480 | -98.09905 | 12560 ft | 325 kts | 102° |
| 2026-04-25 21:36 | 29.66034 | -98.07331 | 12926 ft | 338 kts | 102° |
| 2026-04-25 21:36 | 29.65551 | -98.04552 | 12978 ft | 372 kts | 102° |
| 2026-04-25 21:37 | 29.65091 | -98.01511 | 13176 ft | 395 kts | 96° |
| 2026-04-25 21:37 | 29.65020 | -97.99373 | 13762 ft | 398 kts | 89° |
| 2026-04-25 21:37 | 29.65103 | -97.95132 | 14782 ft | 403 kts | 88° |
| 2026-04-25 21:37 | 29.65188 | -97.91890 | 15568 ft | 409 kts | 88° |
| 2026-04-25 21:38 | 29.65257 | -97.88590 | 16297 ft | 416 kts | 88° |
| 2026-04-25 21:38 | 29.65309 | -97.85250 | 17025 ft | 422 kts | 89° |
| 2026-04-25 21:38 | 29.65354 | -97.81849 | 17755 ft | 428 kts | 89° |
| 2026-04-25 21:38 | 29.65394 | -97.78406 | 18406 ft | 434 kts | 89° |
| 2026-04-25 21:39 | 29.65431 | -97.74920 | 19020 ft | 439 kts | 89° |
| 2026-04-25 21:39 | 29.65468 | -97.71391 | 19648 ft | 444 kts | 88° |
| 2026-04-25 21:39 | 29.65505 | -97.67824 | 20266 ft | 449 kts | 88° |
| 2026-04-25 21:39 | 29.65542 | -97.64216 | 20873 ft | 454 kts | 88° |
| 2026-04-25 21:40 | 29.65579 | -97.60573 | 21455 ft | 459 kts | 88° |
| 2026-04-25 21:40 | 29.65615 | -97.56886 | 22031 ft | 464 kts | 88° |
| 2026-04-25 21:40 | 29.65652 | -97.53152 | 22581 ft | 470 kts | 87° |
| 2026-04-25 21:40 | 29.65687 | -97.49379 | 23137 ft | 474 kts | 87° |
| 2026-04-25 21:41 | 29.65721 | -97.45573 | 23622 ft | 478 kts | 87° |
| 2026-04-25 21:41 | 29.65755 | -97.41734 | 24085 ft | 482 kts | 87° |
| 2026-04-25 21:41 | 29.65787 | -97.37872 | 24559 ft | 485 kts | 87° |
| 2026-04-25 21:41 | 29.65819 | -97.33975 | 25024 ft | 489 kts | 87° |
| 2026-04-25 21:42 | 29.65850 | -97.30052 | 25480 ft | 493 kts | 87° |
| 2026-04-25 21:42 | 29.65880 | -97.26097 | 25932 ft | 497 kts | 87° |
| 2026-04-25 21:42 | 29.65909 | -97.22110 | 26398 ft | 499 kts | 87° |
| 2026-04-25 21:42 | 29.65935 | -97.18118 | 26989 ft | 499 kts | 86° |
| 2026-04-25 21:43 | 29.65958 | -97.14129 | 27638 ft | 498 kts | 86° |
| 2026-04-25 21:43 | 29.65981 | -97.10160 | 28333 ft | 496 kts | 86° |
| 2026-04-25 21:43 | 29.66004 | -97.06199 | 29034 ft | 495 kts | 86° |
| 2026-04-25 21:43 | 29.66026 | -97.02252 | 29704 ft | 494 kts | 86° |
| 2026-04-25 21:44 | 29.66047 | -96.98298 | 30232 ft | 495 kts | 86° |
| 2026-04-25 21:44 | 29.66068 | -96.94338 | 30764 ft | 495 kts | 86° |
| 2026-04-25 21:44 | 29.66109 | -96.86425 | 31862 ft | 494 kts | 86° |
| 2026-04-25 21:45 | 29.66128 | -96.82473 | 32359 ft | 495 kts | 86° |
| 2026-04-25 21:45 | 29.66139 | -96.79853 | 32680 ft | 495 kts | 86° |
| 2026-04-25 21:45 | 29.66160 | -96.74606 | 33325 ft | 496 kts | 86° |
| 2026-04-25 21:45 | 29.66173 | -96.70645 | 33798 ft | 496 kts | 86° |
| 2026-04-25 21:46 | 29.66186 | -96.66626 | 34183 ft | 496 kts | 86° |
| 2026-04-25 21:46 | 29.66197 | -96.62666 | 34552 ft | 497 kts | 86° |
| 2026-04-25 21:46 | 29.66208 | -96.58695 | 34968 ft | 495 kts | 86° |
| 2026-04-25 21:46 | 29.66217 | -96.54742 | 35456 ft | 494 kts | 86° |
| 2026-04-25 21:47 | 29.66226 | -96.50792 | 35803 ft | 495 kts | 86° |
| 2026-04-25 21:47 | 29.66230 | -96.46834 | 36119 ft | 497 kts | 86° |
| 2026-04-25 21:47 | 29.66228 | -96.42910 | 36467 ft | 497 kts | 86° |
| 2026-04-25 21:47 | 29.66223 | -96.38944 | 36842 ft | 497 kts | 86° |
| 2026-04-25 21:48 | 29.66216 | -96.34970 | 37193 ft | 497 kts | 86° |
| 2026-04-25 21:48 | 29.66208 | -96.30996 | 37505 ft | 497 kts | 86° |
| 2026-04-25 21:48 | 29.66201 | -96.27018 | 37811 ft | 498 kts | 86° |
| 2026-04-25 21:48 | 29.66192 | -96.23034 | 38131 ft | 498 kts | 86° |
| 2026-04-25 21:49 | 29.66182 | -96.19059 | 38442 ft | 498 kts | 86° |
| 2026-04-25 21:49 | 29.66172 | -96.15077 | 38675 ft | 498 kts | 86° |
| 2026-04-25 21:49 | 29.66160 | -96.11086 | 38770 ft | 502 kts | 86° |
| 2026-04-25 21:50 | 29.66134 | -96.03031 | 38792 ft | 504 kts | 86° |
| 2026-04-25 21:50 | 29.66102 | -95.94872 | 38817 ft | 517 kts | 86° |
| 2026-04-25 21:51 | 29.66063 | -95.86512 | 38823 ft | 528 kts | 86° |
| 2026-04-25 21:51 | 29.66508 | -95.78089 | 38805 ft | 524 kts | 69° |
| 2026-04-25 21:51 | 29.67654 | -95.74170 | 38825 ft | 512 kts | 58° |
| 2026-04-25 21:52 | 29.69328 | -95.70607 | 38830 ft | 501 kts | 46° |
| 2026-04-25 21:52 | 29.73725 | -95.64534 | 38818 ft | 494 kts | 39° |
| 2026-04-25 21:53 | 29.78244 | -95.58542 | 38816 ft | 497 kts | 39° |
| 2026-04-25 21:53 | 29.82720 | -95.52456 | 38806 ft | 498 kts | 40° |
| 2026-04-25 21:54 | 29.87170 | -95.46336 | 38819 ft | 498 kts | 40° |
| 2026-04-25 21:54 | 29.91613 | -95.40225 | 38806 ft | 497 kts | 40° |
| 2026-04-25 21:55 | 29.96201 | -95.34359 | 38803 ft | 483 kts | 31° |
| 2026-04-25 21:55 | 29.98825 | -95.32043 | 38822 ft | 469 kts | 22° |
| 2026-04-25 21:55 | 30.01566 | -95.30034 | 38846 ft | 466 kts | 20° |
| 2026-04-25 21:56 | 30.07055 | -95.26012 | 38823 ft | 468 kts | 22° |
| 2026-04-25 21:56 | 30.12504 | -95.21876 | 38820 ft | 469 kts | 22° |
| 2026-04-25 21:57 | 30.17955 | -95.17729 | 38820 ft | 469 kts | 22° |
| 2026-04-25 21:57 | 30.23409 | -95.13581 | 38822 ft | 469 kts | 22° |
| 2026-04-25 21:58 | 30.28859 | -95.09432 | 38823 ft | 469 kts | 22° |
| 2026-04-25 21:58 | 30.34310 | -95.05276 | 38822 ft | 470 kts | 22° |
| 2026-04-25 21:59 | 30.39758 | -95.01116 | 38824 ft | 469 kts | 22° |
| 2026-04-25 21:59 | 30.45203 | -94.96955 | 38816 ft | 469 kts | 22° |
| 2026-04-25 22:00 | 30.53351 | -94.90715 | 38812 ft | 467 kts | 22° |
| 2026-04-25 22:00 | 30.58772 | -94.86556 | 38810 ft | 466 kts | 22° |
| 2026-04-25 22:01 | 30.64143 | -94.82431 | 38814 ft | 466 kts | 22° |
| 2026-04-25 22:01 | 30.68671 | -94.78949 | 38812 ft | 466 kts | 22° |
| 2026-04-25 22:02 | 30.74950 | -94.74114 | 38809 ft | 466 kts | 22° |
| 2026-04-25 22:02 | 30.80351 | -94.69948 | 38816 ft | 466 kts | 22° |
| 2026-04-25 22:03 | 30.85756 | -94.65774 | 38810 ft | 466 kts | 22° |
| 2026-04-25 22:03 | 30.91164 | -94.61591 | 38806 ft | 467 kts | 22° |
| 2026-04-25 22:04 | 30.96564 | -94.57407 | 38805 ft | 466 kts | 22° |
| 2026-04-25 22:04 | 31.01947 | -94.53231 | 38807 ft | 465 kts | 22° |
| 2026-04-25 22:05 | 31.07327 | -94.49052 | 38803 ft | 464 kts | 22° |
| 2026-04-25 22:05 | 31.12689 | -94.44882 | 38808 ft | 463 kts | 22° |
| 2026-04-25 22:06 | 31.18047 | -94.40711 | 38827 ft | 463 kts | 22° |
| 2026-04-25 22:06 | 31.23371 | -94.36549 | 38806 ft | 463 kts | 22° |
| 2026-04-25 22:07 | 31.27852 | -94.33040 | 38801 ft | 463 kts | 22° |
| 2026-04-25 22:07 | 31.34068 | -94.28183 | 38813 ft | 462 kts | 22° |
| 2026-04-25 22:08 | 31.39414 | -94.24007 | 38827 ft | 462 kts | 22° |
| 2026-04-25 22:08 | 31.44760 | -94.19823 | 38817 ft | 462 kts | 22° |
| 2026-04-25 22:09 | 31.50108 | -94.15629 | 38824 ft | 462 kts | 24° |
| 2026-04-25 22:09 | 31.55439 | -94.11442 | 38820 ft | 461 kts | 24° |
| 2026-04-25 22:10 | 31.60762 | -94.07257 | 38826 ft | 461 kts | 24° |
| 2026-04-25 22:10 | 31.66081 | -94.03069 | 38820 ft | 460 kts | 24° |
| 2026-04-25 22:11 | 31.71398 | -93.98875 | 38831 ft | 460 kts | 24° |
| 2026-04-25 22:11 | 31.76710 | -93.94682 | 38838 ft | 460 kts | 25° |
| 2026-04-25 22:12 | 31.82020 | -93.90479 | 38835 ft | 460 kts | 25° |
| 2026-04-25 22:12 | 31.85531 | -93.87694 | 38828 ft | 460 kts | 25° |
| 2026-04-25 22:13 | 31.92614 | -93.82067 | 38828 ft | 459 kts | 25° |
| 2026-04-25 22:13 | 31.97876 | -93.77881 | 38836 ft | 459 kts | 25° |
| 2026-04-25 22:14 | 32.03170 | -93.73664 | 38866 ft | 460 kts | 26° |
| 2026-04-25 22:14 | 32.08493 | -93.69419 | 38850 ft | 463 kts | 26° |
| 2026-04-25 22:15 | 32.13831 | -93.65154 | 38849 ft | 465 kts | 26° |
| 2026-04-25 22:16 | 32.20967 | -93.59442 | 38841 ft | 466 kts | 26° |
| 2026-04-25 22:16 | 32.26345 | -93.55129 | 38847 ft | 467 kts | 26° |
| 2026-04-25 22:17 | 32.31716 | -93.50816 | 38861 ft | 468 kts | 26° |
| 2026-04-25 22:17 | 32.37111 | -93.46479 | 38850 ft | 470 kts | 26° |
| 2026-04-25 22:18 | 32.42522 | -93.42121 | 38844 ft | 471 kts | 26° |
| 2026-04-25 22:18 | 32.47973 | -93.37724 | 38865 ft | 471 kts | 26° |
| 2026-04-25 22:19 | 32.53393 | -93.33345 | 38867 ft | 471 kts | 26° |
| 2026-04-25 22:19 | 32.58771 | -93.28995 | 38909 ft | 472 kts | 25° |
| 2026-04-25 22:20 | 32.64198 | -93.24599 | 38883 ft | 473 kts | 25° |
| 2026-04-25 22:20 | 32.69627 | -93.20192 | 38872 ft | 473 kts | 25° |
| 2026-04-25 22:21 | 32.75057 | -93.15781 | 38870 ft | 473 kts | 25° |
| 2026-04-25 22:21 | 32.80485 | -93.11367 | 38863 ft | 473 kts | 25° |
| 2026-04-25 22:22 | 32.85913 | -93.06945 | 38905 ft | 473 kts | 26° |
| 2026-04-25 22:22 | 32.91337 | -93.02519 | 38868 ft | 473 kts | 26° |
| 2026-04-25 22:23 | 32.96762 | -92.98086 | 38861 ft | 473 kts | 26° |
| 2026-04-25 22:23 | 33.02181 | -92.93650 | 38862 ft | 473 kts | 26° |
| 2026-04-25 22:24 | 33.07597 | -92.89210 | 38860 ft | 473 kts | 26° |
| 2026-04-25 22:24 | 33.13014 | -92.84763 | 38892 ft | 473 kts | 26° |
| 2026-04-25 22:25 | 33.18432 | -92.80307 | 38878 ft | 473 kts | 27° |
| 2026-04-25 22:25 | 33.23859 | -92.75837 | 38871 ft | 473 kts | 27° |
| 2026-04-25 22:25 | 33.26394 | -92.73270 | 38845 ft | 488 kts | 43° |
| 2026-04-25 22:26 | 33.28418 | -92.69975 | 38900 ft | 493 kts | 49° |
| 2026-04-25 22:26 | 33.32273 | -92.63155 | 38871 ft | 495 kts | 50° |
| 2026-04-25 22:27 | 33.36137 | -92.56332 | 38867 ft | 496 kts | 49° |
| 2026-04-25 22:27 | 33.40048 | -92.49541 | 38866 ft | 496 kts | 49° |
| 2026-04-25 22:28 | 33.43984 | -92.42749 | 38866 ft | 496 kts | 49° |
| 2026-04-25 22:28 | 33.47922 | -92.35956 | 38862 ft | 496 kts | 49° |
| 2026-04-25 22:29 | 33.51828 | -92.29193 | 38865 ft | 497 kts | 49° |
| 2026-04-25 22:29 | 33.55759 | -92.22373 | 38867 ft | 497 kts | 48° |
| 2026-04-25 22:30 | 33.61657 | -92.12107 | 38868 ft | 499 kts | 49° |
| 2026-04-25 22:30 | 33.64949 | -92.06362 | 38881 ft | 499 kts | 49° |
| 2026-04-25 22:31 | 33.69510 | -91.98375 | 38884 ft | 499 kts | 48° |
| 2026-04-25 22:31 | 33.73430 | -91.91504 | 38872 ft | 498 kts | 48° |
| 2026-04-25 22:32 | 33.77347 | -91.84630 | 38876 ft | 499 kts | 47° |
| 2026-04-25 22:32 | 33.81268 | -91.77746 | 38878 ft | 499 kts | 47° |
| 2026-04-25 22:33 | 33.85158 | -91.70879 | 38704 ft | 490 kts | 47° |
| 2026-04-25 22:33 | 33.87071 | -91.67496 | 38058 ft | 489 kts | 47° |
| 2026-04-25 22:33 | 33.88993 | -91.64108 | 37193 ft | 492 kts | 47° |
| 2026-04-25 22:34 | 33.90927 | -91.60698 | 36313 ft | 495 kts | 47° |
| 2026-04-25 22:34 | 33.92869 | -91.57271 | 35476 ft | 496 kts | 47° |
| 2026-04-25 22:34 | 33.94951 | -91.53991 | 34681 ft | 491 kts | 42° |
| 2026-04-25 22:34 | 33.97191 | -91.50897 | 33867 ft | 489 kts | 41° |
| 2026-04-25 22:35 | 33.99483 | -91.47864 | 32856 ft | 490 kts | 41° |
| 2026-04-25 22:35 | 34.01798 | -91.44811 | 31791 ft | 495 kts | 42° |
| 2026-04-25 22:35 | 34.04064 | -91.41769 | 31568 ft | 480 kts | 42° |
| 2026-04-25 22:35 | 34.06280 | -91.38750 | 31310 ft | 485 kts | 43° |
| 2026-04-25 22:36 | 34.08538 | -91.35654 | 31082 ft | 497 kts | 43° |
| 2026-04-25 22:36 | 34.10833 | -91.32486 | 30842 ft | 504 kts | 44° |
| 2026-04-25 22:36 | 34.13132 | -91.29296 | 30595 ft | 503 kts | 44° |
| 2026-04-25 22:36 | 34.15411 | -91.26125 | 30372 ft | 494 kts | 44° |
| 2026-04-25 22:37 | 34.17624 | -91.23047 | 30183 ft | 477 kts | 44° |
| 2026-04-25 22:37 | 34.19766 | -91.20072 | 29850 ft | 464 kts | 43° |
| 2026-04-25 22:37 | 34.21883 | -91.17143 | 29117 ft | 461 kts | 43° |
| 2026-04-25 22:37 | 34.23978 | -91.14245 | 28422 ft | 456 kts | 43° |
| 2026-04-25 22:38 | 34.26049 | -91.11380 | 27767 ft | 450 kts | 43° |
| 2026-04-25 22:38 | 34.28098 | -91.08540 | 27095 ft | 445 kts | 43° |
| 2026-04-25 22:38 | 34.30120 | -91.05736 | 26423 ft | 441 kts | 44° |
| 2026-04-25 22:38 | 34.32126 | -91.02952 | 25774 ft | 437 kts | 44° |
| 2026-04-25 22:39 | 34.34118 | -91.00183 | 25119 ft | 434 kts | 44° |
| 2026-04-25 22:39 | 34.36090 | -90.97440 | 24475 ft | 431 kts | 44° |
| 2026-04-25 22:39 | 34.38052 | -90.94710 | 23808 ft | 429 kts | 44° |
| 2026-04-25 22:39 | 34.40004 | -90.91990 | 23082 ft | 427 kts | 44° |
| 2026-04-25 22:40 | 34.41944 | -90.89285 | 22352 ft | 424 kts | 44° |
| 2026-04-25 22:40 | 34.43862 | -90.86607 | 21671 ft | 419 kts | 44° |
| 2026-04-25 22:40 | 34.45766 | -90.83948 | 20995 ft | 415 kts | 45° |
| 2026-04-25 22:40 | 34.47646 | -90.81319 | 20365 ft | 411 kts | 44° |
| 2026-04-25 22:41 | 34.49491 | -90.78737 | 20103 ft | 397 kts | 44° |
| 2026-04-25 22:41 | 34.51260 | -90.76224 | 19564 ft | 392 kts | 45° |
| 2026-04-25 22:41 | 34.52997 | -90.73689 | 18990 ft | 388 kts | 46° |
| 2026-04-25 22:41 | 34.54706 | -90.71174 | 18412 ft | 385 kts | 46° |
| 2026-04-25 22:42 | 34.56383 | -90.68706 | 17776 ft | 383 kts | 46° |
| 2026-04-25 22:42 | 34.58073 | -90.66227 | 17148 ft | 379 kts | 46° |
| 2026-04-25 22:42 | 34.59748 | -90.63772 | 16544 ft | 376 kts | 46° |
| 2026-04-25 22:42 | 34.61423 | -90.61318 | 16111 ft | 369 kts | 47° |
| 2026-04-25 22:43 | 34.63015 | -90.58927 | 16035 ft | 367 kts | 48° |
| 2026-04-25 22:43 | 34.64575 | -90.56491 | 15973 ft | 360 kts | 49° |
| 2026-04-25 22:43 | 34.66068 | -90.54130 | 15914 ft | 343 kts | 49° |
| 2026-04-25 22:43 | 34.67520 | -90.51842 | 15509 ft | 344 kts | 49° |
| 2026-04-25 22:44 | 34.69004 | -90.49520 | 14704 ft | 352 kts | 49° |
| 2026-04-25 22:44 | 34.70507 | -90.47170 | 14341 ft | 350 kts | 49° |
| 2026-04-25 22:44 | 34.72004 | -90.44827 | 14008 ft | 352 kts | 49° |
| 2026-04-25 22:44 | 34.73505 | -90.42476 | 13734 ft | 353 kts | 50° |
| 2026-04-25 22:45 | 34.75015 | -90.40111 | 13402 ft | 355 kts | 50° |
| 2026-04-25 22:45 | 34.76524 | -90.37743 | 13087 ft | 354 kts | 50° |
| 2026-04-25 22:45 | 34.78027 | -90.35384 | 12787 ft | 352 kts | 50° |
| 2026-04-25 22:45 | 34.79524 | -90.33034 | 12493 ft | 350 kts | 50° |
| 2026-04-25 22:46 | 34.80989 | -90.30729 | 12184 ft | 339 kts | 50° |
| 2026-04-25 22:46 | 34.82407 | -90.28498 | 11907 ft | 328 kts | 50° |
| 2026-04-25 22:46 | 34.83785 | -90.26329 | 11585 ft | 320 kts | 50° |
| 2026-04-25 22:46 | 34.85134 | -90.24207 | 11277 ft | 313 kts | 50° |
| 2026-04-25 22:47 | 34.86451 | -90.22132 | 10969 ft | 306 kts | 50° |
| 2026-04-25 22:47 | 34.87741 | -90.20100 | 10674 ft | 301 kts | 50° |
| 2026-04-25 22:47 | 34.89016 | -90.18090 | 10387 ft | 299 kts | 50° |
| 2026-04-25 22:47 | 34.90279 | -90.16098 | 10096 ft | 295 kts | 50° |
| 2026-04-25 22:48 | 34.91519 | -90.14139 | 9804 ft | 290 kts | 50° |
| 2026-04-25 22:48 | 34.92825 | -90.12308 | 9467 ft | 282 kts | 36° |
| 2026-04-25 22:48 | 34.94542 | -90.11291 | 9205 ft | 272 kts | 12° |
| 2026-04-25 22:48 | 34.96392 | -90.11074 | 8938 ft | 264 kts | 359° |
| 2026-04-25 22:49 | 34.98210 | -90.11052 | 8677 ft | 259 kts | 359° |
| 2026-04-25 22:49 | 34.99998 | -90.11037 | 8414 ft | 255 kts | 359° |
| 2026-04-25 22:49 | 35.01758 | -90.11021 | 8162 ft | 251 kts | 359° |
| 2026-04-25 22:49 | 35.03488 | -90.10997 | 7917 ft | 247 kts | 359° |
| 2026-04-25 22:50 | 35.05192 | -90.10968 | 7679 ft | 243 kts | 360° |
| 2026-04-25 22:50 | 35.06870 | -90.10938 | 7438 ft | 239 kts | 360° |
| 2026-04-25 22:50 | 35.08525 | -90.10907 | 7204 ft | 237 kts | 360° |
| 2026-04-25 22:50 | 35.10165 | -90.10880 | 6978 ft | 235 kts | 360° |
| 2026-04-25 22:51 | 35.11798 | -90.10893 | 6749 ft | 234 kts | 359° |
| 2026-04-25 22:51 | 35.13425 | -90.10920 | 6518 ft | 234 kts | 359° |
| 2026-04-25 22:51 | 35.15048 | -90.10948 | 6283 ft | 232 kts | 360° |
| 2026-04-25 22:51 | 35.16651 | -90.10975 | 6044 ft | 229 kts | 360° |
| 2026-04-25 22:52 | 35.18239 | -90.10999 | 5802 ft | 227 kts | 360° |
| 2026-04-25 22:52 | 35.19807 | -90.11024 | 5571 ft | 224 kts | 0° |
| 2026-04-25 22:52 | 35.21363 | -90.11044 | 5264 ft | 225 kts | 2° |
| 2026-04-25 22:52 | 35.22381 | -90.10830 | 5031 ft | 226 kts | 22° |
| 2026-04-25 22:53 | 35.23854 | -90.09140 | 4538 ft | 222 kts | 66° |
| 2026-04-25 22:53 | 35.24128 | -90.07277 | 4099 ft | 226 kts | 88° |
| 2026-04-25 22:53 | 35.24161 | -90.05350 | 3802 ft | 226 kts | 88° |
| 2026-04-25 22:53 | 35.24181 | -90.03435 | 3544 ft | 225 kts | 88° |
| 2026-04-25 22:54 | 35.23867 | -90.01573 | 3231 ft | 227 kts | 118° |
| 2026-04-25 22:54 | 35.22770 | -90.00226 | 3068 ft | 228 kts | 152° |
| 2026-04-25 22:54 | 35.21325 | -89.99418 | 3054 ft | 234 kts | 158° |
| 2026-04-25 22:54 | 35.19741 | -89.99043 | 2995 ft | 230 kts | 181° |
| 2026-04-25 22:55 | 35.18183 | -89.99048 | 2973 ft | 218 kts | 179° |
| 2026-04-25 22:55 | 35.16722 | -89.99004 | 2990 ft | 204 kts | 179° |
| 2026-04-25 22:55 | 35.15306 | -89.98960 | 2587 ft | 207 kts | 178° |
| 2026-04-25 22:55 | 35.13872 | -89.98904 | 2204 ft | 201 kts | 183° |
| 2026-04-25 22:56 | 35.12566 | -89.98936 | 2131 ft | 178 kts | 175° |
| 2026-04-25 22:56 | 35.11367 | -89.98827 | 1823 ft | 172 kts | 177° |
| 2026-04-25 22:56 | 35.10178 | -89.98800 | 1497 ft | 167 kts | 183° |
| 2026-04-25 22:56 | 35.09068 | -89.98833 | 1294 ft | 153 kts | 179° |
| 2026-04-25 22:57 | 35.08029 | -89.98787 | 1027 ft | 144 kts | 180° |
| 2026-04-25 22:57 | 35.07052 | -89.98776 | 748 ft | 137 kts | 182° |
| 2026-04-25 22:57 | 35.06133 | -89.98771 | 520 ft | 129 kts | 179° |
| 2026-04-25 22:57 | 35.05234 | -89.98740 | 391 ft | 131 kts | 184° |
| 2026-04-25 22:58 | 35.04341 | -89.98728 | 295 ft | 120 kts | 181° |
| 2026-04-25 22:58 | 35.03678 | -89.98718 | 311 ft | 65 kts | 179° |
| 2026-04-25 22:58 | 35.03443 | -89.98713 | 314 ft | 6 kts | 175° |
| 2026-04-25 22:58 | 35.03355 | -89.98702 | 317 ft | 17 kts | 175° |
| 2026-04-25 22:59 | 35.03238 | -89.98679 | 317 ft | 18 kts | 164° |
| 2026-04-25 22:59 | 35.03131 | -89.98618 | 314 ft | 13 kts | 144° |
| 2026-04-25 22:59 | 35.03122 | -89.98610 | 314 ft | 0 kts | 142° |
| 2026-04-25 23:00 | 35.03117 | -89.98605 | 314 ft | 7 kts | 142° |
| 2026-04-25 23:01 | 35.03069 | -89.98534 | 313 ft | 12 kts | 103° |
| 2026-04-25 23:01 | 35.03130 | -89.98474 | 316 ft | 14 kts | 1° |
| 2026-04-25 23:01 | 35.03239 | -89.98476 | 314 ft | 18 kts | 360° |
| 2026-04-25 23:01 | 35.03373 | -89.98479 | 314 ft | 19 kts | 359° |
| 2026-04-25 23:02 | 35.03505 | -89.98482 | 314 ft | 19 kts | 0° |
| 2026-04-25 23:02 | 35.03633 | -89.98484 | 310 ft | 18 kts | 357° |
| 2026-04-25 23:02 | 35.03756 | -89.98491 | 308 ft | 17 kts | 357° |
| 2026-04-25 23:02 | 35.03875 | -89.98495 | 306 ft | 17 kts | 359° |
| 2026-04-25 23:03 | 35.03990 | -89.98494 | 302 ft | 16 kts | 0° |
| 2026-04-25 23:03 | 35.04100 | -89.98488 | 299 ft | 16 kts | 31° |
| 2026-04-25 23:03 | 35.04141 | -89.98386 | 300 ft | 11 kts | 105° |
| 2026-04-25 23:03 | 35.04132 | -89.98369 | 301 ft | 0 kts | 126° |